sensor_id;sensor_type;location;lat;lon;timestamp;pressure;altitude;pressure_sealevel;temperature;humidity
36692;BME280;22678;52.052;4.242;2023-03-22T00:01:24;100914.31;;;9.43;90.76
36692;BME280;22678;52.052;4.242;2023-03-22T00:03:50;100904.72;;;9.37;90.89
36692;BME280;22678;52.052;4.242;2023-03-22T00:06:17;100903.84;;;9.40;91.21
36692;BME280;22678;52.052;4.242;2023-03-22T00:08:43;100899.44;;;9.40;91.04
36692;BME280;22678;52.052;4.242;2023-03-22T00:11:10;100886.34;;;9.36;91.21
36692;BME280;22678;52.052;4.242;2023-03-22T00:13:36;100887.19;;;9.38;91.24
36692;BME280;22678;52.052;4.242;2023-03-22T00:16:03;100880.22;;;9.38;91.16
36692;BME280;22678;52.052;4.242;2023-03-22T00:18:29;100876.72;;;9.33;91.40
36692;BME280;22678;52.052;4.242;2023-03-22T00:20:56;100875.00;;;9.31;91.56
36692;BME280;22678;52.052;4.242;2023-03-22T00:23:22;100876.72;;;9.36;91.43
36692;BME280;22678;52.052;4.242;2023-03-22T00:25:48;100870.59;;;9.36;91.57
36692;BME280;22678;52.052;4.242;2023-03-22T00:28:14;100870.59;;;9.39;91.63
36692;BME280;22678;52.052;4.242;2023-03-22T00:30:41;100861.84;;;9.40;91.68
36692;BME280;22678;52.052;4.242;2023-03-22T00:33:07;100864.47;;;9.38;91.92
36692;BME280;22678;52.052;4.242;2023-03-22T00:35:33;100847.00;;;9.29;91.73
36692;BME280;22678;52.052;4.242;2023-03-22T00:37:58;100839.13;;;9.29;91.77
36692;BME280;22678;52.052;4.242;2023-03-22T00:40:38;100846.09;;;9.37;91.79
36692;BME280;22678;52.052;4.242;2023-03-22T00:43:03;100835.63;;;9.35;91.78
36692;BME280;22678;52.052;4.242;2023-03-22T00:45:28;100825.13;;;9.31;91.63
36692;BME280;22678;52.052;4.242;2023-03-22T00:47:53;100839.94;;;9.38;91.98
36692;BME280;22678;52.052;4.242;2023-03-22T00:50:19;100819.88;;;9.31;91.77
36692;BME280;22678;52.052;4.242;2023-03-22T00:52:44;100827.75;;;9.31;91.73
36692;BME280;22678;52.052;4.242;2023-03-22T00:55:09;100824.25;;;9.28;91.80
36692;BME280;22678;52.052;4.242;2023-03-22T00:57:35;100824.22;;;9.32;91.54
36692;BME280;22678;52.052;4.242;2023-03-22T01:00:00;100807.66;;;9.23;91.66
36692;BME280;22678;52.052;4.242;2023-03-22T01:02:40;100821.59;;;9.32;91.57
36692;BME280;22678;52.052;4.242;2023-03-22T01:05:06;100810.25;;;9.29;91.64
36692;BME280;22678;52.052;4.242;2023-03-22T01:07:31;100814.66;;;9.29;91.72
36692;BME280;22678;52.052;4.242;2023-03-22T01:09:57;100799.78;;;9.26;91.67
36692;BME280;22678;52.052;4.242;2023-03-22T01:12:23;100797.16;;;9.26;91.63
36692;BME280;22678;52.052;4.242;2023-03-22T01:14:48;100780.53;;;9.21;91.58
36692;BME280;22678;52.052;4.242;2023-03-22T01:17:13;100784.91;;;9.22;91.59
36692;BME280;22678;52.052;4.242;2023-03-22T01:19:39;100770.94;;;9.20;91.72
36692;BME280;22678;52.052;4.242;2023-03-22T01:22:05;100769.16;;;9.24;91.79
36692;BME280;22678;52.052;4.242;2023-03-22T01:24:31;100769.16;;;9.22;91.63
36692;BME280;22678;52.052;4.242;2023-03-22T01:26:57;100761.34;;;9.16;91.79
36692;BME280;22678;52.052;4.242;2023-03-22T01:29:23;100744.69;;;9.14;91.81
36692;BME280;22678;52.052;4.242;2023-03-22T01:31:49;100749.94;;;9.20;91.75
36692;BME280;22678;52.052;4.242;2023-03-22T01:34:15;100725.47;;;9.12;91.57
36692;BME280;22678;52.052;4.242;2023-03-22T01:36:40;100737.72;;;9.16;91.78
36692;BME280;22678;52.052;4.242;2023-03-22T01:39:05;100743.78;;;9.26;91.65
36692;BME280;22678;52.052;4.242;2023-03-22T01:41:31;100739.44;;;9.23;91.44
36692;BME280;22678;52.052;4.242;2023-03-22T01:46:34;100734.19;;;9.26;91.58
36692;BME280;22678;52.052;4.242;2023-03-22T01:49:01;100721.09;;;9.22;91.58
36692;BME280;22678;52.052;4.242;2023-03-22T01:51:28;100681.81;;;9.03;91.26
36692;BME280;22678;52.052;4.242;2023-03-22T01:53:55;100731.53;;;9.29;91.25
36692;BME280;22678;52.052;4.242;2023-03-22T01:56:25;100727.16;;;9.28;91.46
36692;BME280;22678;52.052;4.242;2023-03-22T01:58:52;100726.25;;;9.34;91.69
36692;BME280;22678;52.052;4.242;2023-03-22T02:01:19;100718.38;;;9.37;91.33
36692;BME280;22678;52.052;4.242;2023-03-22T02:03:56;100729.72;;;9.45;91.71
36692;BME280;22678;52.052;4.242;2023-03-22T02:06:22;100713.97;;;9.42;91.71
36692;BME280;22678;52.052;4.242;2023-03-22T02:08:48;100722.66;;;9.51;92.18
36692;BME280;22678;52.052;4.242;2023-03-22T02:11:20;100711.28;;;9.53;92.13
36692;BME280;22678;52.052;4.242;2023-03-22T02:14:00;100706.00;;;9.58;92.40
36692;BME280;22678;52.052;4.242;2023-03-22T02:33:26;100685.81;;;9.66;92.78
36692;BME280;22678;52.052;4.242;2023-03-22T02:39:03;100687.56;;;9.64;92.87
36692;BME280;22678;52.052;4.242;2023-03-22T02:47:17;100671.00;;;9.57;93.09
36692;BME280;22678;52.052;4.242;2023-03-22T02:55:28;100668.34;;;9.63;93.02
36692;BME280;22678;52.052;4.242;2023-03-22T03:00:50;100650.00;;;9.57;93.13
36692;BME280;22678;52.052;4.242;2023-03-22T03:03:18;100653.53;;;9.53;93.16
36692;BME280;22678;52.052;4.242;2023-03-22T03:05:48;100639.56;;;9.51;93.28
36692;BME280;22678;52.052;4.242;2023-03-22T03:08:16;100654.38;;;9.57;93.07
36692;BME280;22678;52.052;4.242;2023-03-22T03:10:42;100653.50;;;9.56;93.25
36692;BME280;22678;52.052;4.242;2023-03-22T03:13:11;100643.91;;;9.51;93.31
36692;BME280;22678;52.052;4.242;2023-03-22T03:15:38;100636.91;;;9.53;93.30
36692;BME280;22678;52.052;4.242;2023-03-22T03:18:28;100642.16;;;9.54;93.50
36692;BME280;22678;52.052;4.242;2023-03-22T03:26:22;100652.69;;;9.51;93.85
36692;BME280;22678;52.052;4.242;2023-03-22T03:29:09;100641.31;;;9.46;93.93
36692;BME280;22678;52.052;4.242;2023-03-22T03:31:44;100641.31;;;9.49;93.99
36692;BME280;22678;52.052;4.242;2023-03-22T03:34:25;100641.31;;;9.49;94.29
36692;BME280;22678;52.052;4.242;2023-03-22T03:37:05;100637.84;;;9.44;93.78
36692;BME280;22678;52.052;4.242;2023-03-22T03:39:36;100630.91;;;9.37;93.95
36692;BME280;22678;52.052;4.242;2023-03-22T03:42:05;100632.63;;;9.41;94.10
36692;BME280;22678;52.052;4.242;2023-03-22T03:44:35;100632.63;;;9.41;94.19
36692;BME280;22678;52.052;4.242;2023-03-22T03:47:02;100623.91;;;9.36;94.76
36692;BME280;22678;52.052;4.242;2023-03-22T03:49:29;100636.97;;;9.43;94.91
36692;BME280;22678;52.052;4.242;2023-03-22T03:51:55;100634.34;;;9.42;94.68
36692;BME280;22678;52.052;4.242;2023-03-22T03:54:21;100630.81;;;9.46;95.07
36692;BME280;22678;52.052;4.242;2023-03-22T03:56:47;100626.44;;;9.46;95.03
36692;BME280;22678;52.052;4.242;2023-03-22T03:59:17;100623.00;;;9.41;95.05
36692;BME280;22678;52.052;4.242;2023-03-22T04:01:44;100623.84;;;9.42;95.46
36692;BME280;22678;52.052;4.242;2023-03-22T04:04:22;100618.56;;;9.51;95.55
36692;BME280;22678;52.052;4.242;2023-03-22T04:06:56;100603.69;;;9.50;95.49
36692;BME280;22678;52.052;4.242;2023-03-22T04:09:23;100612.41;;;9.51;95.53
36692;BME280;22678;52.052;4.242;2023-03-22T04:11:48;100604.53;;;9.52;95.62
36692;BME280;22678;52.052;4.242;2023-03-22T04:14:14;100614.16;;;9.53;95.49
36692;BME280;22678;52.052;4.242;2023-03-22T04:16:39;100612.41;;;9.52;95.57
36692;BME280;22678;52.052;4.242;2023-03-22T04:19:05;100604.50;;;9.55;95.72
36692;BME280;22678;52.052;4.242;2023-03-22T04:21:30;100614.13;;;9.58;95.73
36692;BME280;22678;52.052;4.242;2023-03-22T04:23:55;100604.50;;;9.55;95.62
36692;BME280;22678;52.052;4.242;2023-03-22T04:26:21;100602.78;;;9.54;95.65
36692;BME280;22678;52.052;4.242;2023-03-22T04:28:46;100607.97;;;9.60;95.61
36692;BME280;22678;52.052;4.242;2023-03-22T04:31:11;100590.50;;;9.56;95.47
36692;BME280;22678;52.052;4.242;2023-03-22T04:33:37;100590.50;;;9.56;95.43
36692;BME280;22678;52.052;4.242;2023-03-22T04:36:05;100589.63;;;9.57;95.62
36692;BME280;22678;52.052;4.242;2023-03-22T04:38:31;100552.22;;;9.31;95.30
36692;BME280;22678;52.052;4.242;2023-03-22T04:40:56;100587.00;;;9.56;95.31
36692;BME280;22678;52.052;4.242;2023-03-22T04:43:22;100581.78;;;9.54;95.19
36692;BME280;22678;52.052;4.242;2023-03-22T04:45:47;100586.97;;;9.60;95.01
36692;BME280;22678;52.052;4.242;2023-03-22T04:48:13;100564.31;;;9.50;94.98
36692;BME280;22678;52.052;4.242;2023-03-22T04:50:38;100573.91;;;9.54;94.94
36692;BME280;22678;52.052;4.242;2023-03-22T04:53:04;100582.59;;;9.61;94.85
36692;BME280;22678;52.052;4.242;2023-03-22T04:55:30;100575.59;;;9.58;94.86
36692;BME280;22678;52.052;4.242;2023-03-22T04:57:55;100579.94;;;9.62;94.47
36692;BME280;22678;52.052;4.242;2023-03-22T05:00:20;100573.00;;;9.55;94.51
36692;BME280;22678;52.052;4.242;2023-03-22T05:02:46;100568.56;;;9.63;94.20
36692;BME280;22678;52.052;4.242;2023-03-22T05:05:11;100570.34;;;9.63;93.89
36692;BME280;22678;52.052;4.242;2023-03-22T05:07:37;100553.75;;;9.56;93.80
36692;BME280;22678;52.052;4.242;2023-03-22T05:10:04;100566.78;;;9.64;93.57
36692;BME280;22678;52.052;4.242;2023-03-22T05:12:29;100574.69;;;9.62;93.35
36692;BME280;22678;52.052;4.242;2023-03-22T05:14:55;100568.63;;;9.57;93.32
36692;BME280;22678;52.052;4.242;2023-03-22T05:17:20;100566.84;;;9.58;92.82
36692;BME280;22678;52.052;4.242;2023-03-22T05:19:46;100570.34;;;9.58;92.79
36692;BME280;22678;52.052;4.242;2023-03-22T05:22:11;100559.84;;;9.57;92.68
36692;BME280;22678;52.052;4.242;2023-03-22T05:24:38;100569.50;;;9.56;92.47
36692;BME280;22678;52.052;4.242;2023-03-22T05:27:03;100558.94;;;9.62;92.39
36692;BME280;22678;52.052;4.242;2023-03-22T05:29:29;100557.22;;;9.58;92.25
36692;BME280;22678;52.052;4.242;2023-03-22T05:32:02;100556.31;;;9.61;91.82
36692;BME280;22678;52.052;4.242;2023-03-22T05:34:27;100551.97;;;9.61;91.64
36692;BME280;22678;52.052;4.242;2023-03-22T05:37:00;100547.63;;;9.57;91.30
36692;BME280;22678;52.052;4.242;2023-03-22T05:39:25;100546.72;;;9.58;91.11
36692;BME280;22678;52.052;4.242;2023-03-22T05:41:50;100543.22;;;9.59;90.96
36692;BME280;22678;52.052;4.242;2023-03-22T05:44:16;100542.41;;;9.53;90.93
36692;BME280;22678;52.052;4.242;2023-03-22T05:46:41;100538.03;;;9.53;90.89
36692;BME280;22678;52.052;4.242;2023-03-22T05:49:06;100554.59;;;9.57;90.77
36692;BME280;22678;52.052;4.242;2023-03-22T05:51:32;100551.13;;;9.55;90.40
36692;BME280;22678;52.052;4.242;2023-03-22T05:53:58;100545.06;;;9.51;90.65
36692;BME280;22678;52.052;4.242;2023-03-22T05:56:23;100552.03;;;9.52;90.58
36692;BME280;22678;52.052;4.242;2023-03-22T05:58:48;100546.75;;;9.55;90.55
36692;BME280;22678;52.052;4.242;2023-03-22T06:01:14;100537.13;;;9.56;90.21
36692;BME280;22678;52.052;4.242;2023-03-22T06:03:41;100548.44;;;9.62;90.24
36692;BME280;22678;52.052;4.242;2023-03-22T06:06:07;100548.44;;;9.62;90.08
36692;BME280;22678;52.052;4.242;2023-03-22T06:08:37;100544.94;;;9.63;90.18
36692;BME280;22678;52.052;4.242;2023-03-22T06:11:03;100538.84;;;9.60;89.90
36692;BME280;22678;52.052;4.242;2023-03-22T06:13:29;100545.81;;;9.62;90.06
36692;BME280;22678;52.052;4.242;2023-03-22T06:15:54;100528.34;;;9.58;89.92
36692;BME280;22678;52.052;4.242;2023-03-22T06:18:22;100539.72;;;9.60;89.98
36692;BME280;22678;52.052;4.242;2023-03-22T06:20:48;100544.03;;;9.66;90.01
36692;BME280;22678;52.052;4.242;2023-03-22T06:23:13;100534.44;;;9.62;90.00
36692;BME280;22678;52.052;4.242;2023-03-22T06:25:38;100539.69;;;9.63;89.84
36692;BME280;22678;52.052;4.242;2023-03-22T06:28:04;100495.31;;;9.36;90.04
36692;BME280;22678;52.052;4.242;2023-03-22T06:30:29;100541.41;;;9.68;89.91
36692;BME280;22678;52.052;4.242;2023-03-22T06:32:54;100531.75;;;9.68;89.88
36692;BME280;22678;52.052;4.242;2023-03-22T06:35:21;100537.88;;;9.70;89.95
36692;BME280;22678;52.052;4.242;2023-03-22T06:37:46;100523.88;;;9.70;89.81
36692;BME280;22678;52.052;4.242;2023-03-22T06:40:11;100539.53;;;9.77;89.76
36692;BME280;22678;52.052;4.242;2023-03-22T06:42:37;100524.72;;;9.73;89.87
36692;BME280;22678;52.052;4.242;2023-03-22T06:45:03;100545.66;;;9.81;89.61
36692;BME280;22678;52.052;4.242;2023-03-22T06:47:28;100522.00;;;9.81;90.13
36692;BME280;22678;52.052;4.242;2023-03-22T06:49:53;100528.06;;;9.88;90.05
36692;BME280;22678;52.052;4.242;2023-03-22T06:52:19;100529.78;;;9.92;90.06
36692;BME280;22678;52.052;4.242;2023-03-22T06:54:45;100532.41;;;9.90;89.89
36692;BME280;22678;52.052;4.242;2023-03-22T06:57:10;100531.47;;;9.96;89.69
36692;BME280;22678;52.052;4.242;2023-03-22T06:59:36;100532.34;;;9.96;90.03
36692;BME280;22678;52.052;4.242;2023-03-22T07:02:01;100528.78;;;10.02;89.36
36692;BME280;22678;52.052;4.242;2023-03-22T07:04:27;100526.19;;;10.00;89.14
36692;BME280;22678;52.052;4.242;2023-03-22T07:06:53;100533.16;;;10.05;89.24
36692;BME280;22678;52.052;4.242;2023-03-22T07:09:18;100530.47;;;10.08;88.88
36692;BME280;22678;52.052;4.242;2023-03-22T07:11:44;100519.13;;;10.07;88.67
36692;BME280;22678;52.052;4.242;2023-03-22T07:14:09;100518.31;;;10.00;88.87
36692;BME280;22678;52.052;4.242;2023-03-22T07:16:35;100536.59;;;10.08;88.83
36692;BME280;22678;52.052;4.242;2023-03-22T07:19:00;100546.16;;;10.15;88.75
36692;BME280;22678;52.052;4.242;2023-03-22T07:21:26;100541.81;;;10.14;88.55
36692;BME280;22678;52.052;4.242;2023-03-22T07:23:51;100532.19;;;10.12;88.68
36692;BME280;22678;52.052;4.242;2023-03-22T07:26:17;100532.16;;;10.15;88.45
36692;BME280;22678;52.052;4.242;2023-03-22T07:28:42;100544.31;;;10.25;88.41
36692;BME280;22678;52.052;4.242;2023-03-22T07:31:10;100542.50;;;10.29;88.44
36692;BME280;22678;52.052;4.242;2023-03-22T07:33:37;100536.41;;;10.25;88.67
36692;BME280;22678;52.052;4.242;2023-03-22T07:36:04;100525.06;;;10.20;88.76
36692;BME280;22678;52.052;4.242;2023-03-22T07:38:30;100533.78;;;10.27;89.04
36692;BME280;22678;52.052;4.242;2023-03-22T07:40:56;100542.50;;;10.27;89.31
36692;BME280;22678;52.052;4.242;2023-03-22T07:43:21;100533.78;;;10.25;89.39
36692;BME280;22678;52.052;4.242;2023-03-22T07:45:50;100518.19;;;10.13;89.57
36692;BME280;22678;52.052;4.242;2023-03-22T07:48:20;100532.13;;;10.18;89.99
36692;BME280;22678;52.052;4.242;2023-03-22T07:50:45;100520.84;;;10.08;90.28
36692;BME280;22678;52.052;4.242;2023-03-22T07:53:11;100528.66;;;10.14;90.50
36692;BME280;22678;52.052;4.242;2023-03-22T07:55:37;100543.53;;;10.14;90.80
36692;BME280;22678;52.052;4.242;2023-03-22T07:58:03;100546.16;;;10.14;91.12
36692;BME280;22678;52.052;4.242;2023-03-22T08:00:30;100537.38;;;10.16;91.34
36692;BME280;22678;52.052;4.242;2023-03-22T08:02:55;100537.47;;;10.09;91.75
36692;BME280;22678;52.052;4.242;2023-03-22T08:05:20;100551.50;;;10.08;92.00
36692;BME280;22678;52.052;4.242;2023-03-22T08:07:47;100554.19;;;10.03;92.61
36692;BME280;22678;52.052;4.242;2023-03-22T08:10:12;100532.38;;;9.95;92.83
36692;BME280;22678;52.052;4.242;2023-03-22T08:12:38;100540.28;;;9.92;93.59
36692;BME280;22678;52.052;4.242;2023-03-22T08:15:03;100527.16;;;9.90;93.54
36692;BME280;22678;52.052;4.242;2023-03-22T08:17:29;100523.75;;;9.82;94.09
36692;BME280;22678;52.052;4.242;2023-03-22T08:19:55;100519.44;;;9.76;94.12
36692;BME280;22678;52.052;4.242;2023-03-22T08:22:21;100531.66;;;9.79;94.84
36692;BME280;22678;52.052;4.242;2023-03-22T08:24:54;100530.78;;;9.80;95.07
36692;BME280;22678;52.052;4.242;2023-03-22T08:27:20;100527.34;;;9.75;95.27
36692;BME280;22678;52.052;4.242;2023-03-22T08:29:45;100528.16;;;9.78;95.56
36692;BME280;22678;52.052;4.242;2023-03-22T08:32:13;100522.09;;;9.75;95.77
36692;BME280;22678;52.052;4.242;2023-03-22T08:34:40;100536.91;;;9.80;95.79
36692;BME280;22678;52.052;4.242;2023-03-22T08:37:07;100518.50;;;9.79;95.98
36692;BME280;22678;52.052;4.242;2023-03-22T08:39:32;100534.28;;;9.79;96.20
36692;BME280;22678;52.052;4.242;2023-03-22T08:41:58;100528.22;;;9.74;96.52
36692;BME280;22678;52.052;4.242;2023-03-22T08:44:23;100526.44;;;9.76;96.68
36692;BME280;22678;52.052;4.242;2023-03-22T08:46:49;100532.59;;;9.75;96.76
36692;BME280;22678;52.052;4.242;2023-03-22T08:49:14;100536.91;;;9.79;97.12
36692;BME280;22678;52.052;4.242;2023-03-22T08:51:40;100536.06;;;9.77;97.43
36692;BME280;22678;52.052;4.242;2023-03-22T08:54:06;100543.06;;;9.78;97.42
36692;BME280;22678;52.052;4.242;2023-03-22T08:56:31;100523.81;;;9.76;97.80
36692;BME280;22678;52.052;4.242;2023-03-22T08:59:01;100515.13;;;9.71;97.86
36692;BME280;22678;52.052;4.242;2023-03-22T09:01:28;100520.34;;;9.74;97.97
36692;BME280;22678;52.052;4.242;2023-03-22T09:03:53;100538.66;;;9.80;98.09
36692;BME280;22678;52.052;4.242;2023-03-22T09:06:18;100528.22;;;9.74;98.28
36692;BME280;22678;52.052;4.242;2023-03-22T09:08:43;100527.31;;;9.78;98.20
36692;BME280;22678;52.052;4.242;2023-03-22T09:11:10;100523.75;;;9.82;98.64
36692;BME280;22678;52.052;4.242;2023-03-22T09:13:36;100541.25;;;9.81;98.89
36692;BME280;22678;52.052;4.242;2023-03-22T09:16:02;100511.63;;;9.72;98.88
36692;BME280;22678;52.052;4.242;2023-03-22T09:18:28;100522.03;;;9.78;99.02
36692;BME280;22678;52.052;4.242;2023-03-22T09:20:53;100532.56;;;9.78;99.08
36692;BME280;22678;52.052;4.242;2023-03-22T09:23:19;100520.28;;;9.77;99.45
36692;BME280;22678;52.052;4.242;2023-03-22T09:25:45;100526.41;;;9.79;99.44
36692;BME280;22678;52.052;4.242;2023-03-22T09:28:11;100522.00;;;9.81;99.59
36692;BME280;22678;52.052;4.242;2023-03-22T09:30:37;100523.75;;;9.84;99.56
36692;BME280;22678;52.052;4.242;2023-03-22T09:33:03;100528.09;;;9.83;99.80
36692;BME280;22678;52.052;4.242;2023-03-22T09:35:28;100534.19;;;9.88;99.86
36692;BME280;22678;52.052;4.242;2023-03-22T09:37:56;100534.19;;;9.88;99.97
36692;BME280;22678;52.052;4.242;2023-03-22T09:40:28;100547.25;;;9.94;100.00
36692;BME280;22678;52.052;4.242;2023-03-22T09:42:56;100530.66;;;9.92;100.00
36692;BME280;22678;52.052;4.242;2023-03-22T09:45:28;100527.16;;;9.90;100.00
36692;BME280;22678;52.052;4.242;2023-03-22T09:47:59;100534.19;;;9.88;100.00
36692;BME280;22678;52.052;4.242;2023-03-22T09:50:30;100519.34;;;9.84;100.00
36692;BME280;22678;52.052;4.242;2023-03-22T09:52:56;100534.19;;;9.88;100.00
36692;BME280;22678;52.052;4.242;2023-03-22T10:03:03;100549.03;;;9.94;100.00
36692;BME280;22678;52.052;4.242;2023-03-22T10:05:53;100539.34;;;9.97;100.00
36692;BME280;22678;52.052;4.242;2023-03-22T10:11:40;100535.78;;;10.03;100.00
36692;BME280;22678;52.052;4.242;2023-03-22T10:14:23;100516.53;;;10.03;100.00
36692;BME280;22678;52.052;4.242;2023-03-22T10:16:53;100509.56;;;9.98;100.00
36692;BME280;22678;52.052;4.242;2023-03-22T10:19:48;100506.88;;;10.05;100.00
36692;BME280;22678;52.052;4.242;2023-03-22T10:22:18;100501.63;;;10.05;100.00
36692;BME280;22678;52.052;4.242;2023-03-22T10:24:47;100507.72;;;10.07;100.00
36692;BME280;22678;52.052;4.242;2023-03-22T10:27:17;100502.41;;;10.13;100.00
36692;BME280;22678;52.052;4.242;2023-03-22T10:29:52;100495.28;;;10.21;100.00
36692;BME280;22678;52.052;4.242;2023-03-22T10:32:22;100497.03;;;10.22;100.00
36692;BME280;22678;52.052;4.242;2023-03-22T10:34:52;100493.50;;;10.26;100.00
36692;BME280;22678;52.052;4.242;2023-03-22T10:37:30;100493.47;;;10.28;100.00
36692;BME280;22678;52.052;4.242;2023-03-22T10:39:59;100500.41;;;10.37;100.00
36692;BME280;22678;52.052;4.242;2023-03-22T10:42:27;100483.66;;;10.42;100.00
36692;BME280;22678;52.052;4.242;2023-03-22T10:45:13;100482.72;;;10.48;100.00
36692;BME280;22678;52.052;4.242;2023-03-22T10:47:43;100478.28;;;10.51;100.00
36692;BME280;22678;52.052;4.242;2023-03-22T10:50:16;100497.47;;;10.58;100.00
36692;BME280;22678;52.052;4.242;2023-03-22T10:52:57;100482.50;;;10.65;100.00
36692;BME280;22678;52.052;4.242;2023-03-22T10:55:25;100485.94;;;10.68;100.00
36692;BME280;22678;52.052;4.242;2023-03-22T10:57:58;100498.09;;;10.76;100.00
36692;BME280;22678;52.052;4.242;2023-03-22T11:00:25;100515.63;;;10.77;98.74
36692;BME280;22678;52.052;4.242;2023-03-22T11:02:57;100514.81;;;10.72;98.77
36692;BME280;22678;52.052;4.242;2023-03-22T11:05:25;100525.38;;;10.68;98.72
36692;BME280;22678;52.052;4.242;2023-03-22T11:07:51;100517.47;;;10.68;98.24
36692;BME280;22678;52.052;4.242;2023-03-22T11:10:26;100510.69;;;10.54;98.03
36692;BME280;22678;52.052;4.242;2023-03-22T11:15:35;100546.38;;;10.70;97.87
36692;BME280;22678;52.052;4.242;2023-03-22T11:18:05;100545.63;;;10.63;97.29
36692;BME280;22678;52.052;4.242;2023-03-22T11:20:32;100546.38;;;10.70;97.21
36692;BME280;22678;52.052;4.242;2023-03-22T11:23:03;100556.91;;;10.70;97.22
36692;BME280;22678;52.052;4.242;2023-03-22T11:25:30;100538.56;;;10.65;97.44
36692;BME280;22678;52.052;4.242;2023-03-22T11:30:28;100547.25;;;10.74;97.27
36692;BME280;22678;52.052;4.242;2023-03-22T11:35:29;100525.31;;;10.73;97.05
36692;BME280;22678;52.052;4.242;2023-03-22T11:37:55;100522.69;;;10.72;97.19
36692;BME280;22678;52.052;4.242;2023-03-22T11:40:26;100538.38;;;10.81;97.27
36692;BME280;22678;52.052;4.242;2023-03-22T11:42:55;100531.41;;;10.77;96.96
36692;BME280;22678;52.052;4.242;2023-03-22T11:45:31;100515.69;;;10.74;96.88
36692;BME280;22678;52.052;4.242;2023-03-22T11:48:01;100539.22;;;10.83;96.60
36692;BME280;22678;52.052;4.242;2023-03-22T11:50:31;100531.31;;;10.83;96.84
36692;BME280;22678;52.052;4.242;2023-03-22T11:53:01;100527.75;;;10.87;96.72
36692;BME280;22678;52.052;4.242;2023-03-22T11:55:28;100515.47;;;10.87;96.51
36692;BME280;22678;52.052;4.242;2023-03-22T11:57:56;100525.84;;;10.98;95.96
36692;BME280;22678;52.052;4.242;2023-03-22T12:00:27;100525.81;;;11.01;96.09
36692;BME280;22678;52.052;4.242;2023-03-22T12:02:57;100529.16;;;11.10;95.97
36692;BME280;22678;52.052;4.242;2023-03-22T12:05:30;100533.56;;;11.09;95.82
36692;BME280;22678;52.052;4.242;2023-03-22T12:08:10;100530.81;;;11.17;95.58
36692;BME280;22678;52.052;4.242;2023-03-22T12:10:41;100522.09;;;11.15;95.50
36692;BME280;22678;52.052;4.242;2023-03-22T12:13:27;100533.41;;;11.20;95.15
36692;BME280;22678;52.052;4.242;2023-03-22T12:16:00;100508.91;;;11.16;94.70
36692;BME280;22678;52.052;4.242;2023-03-22T12:18:31;100528.09;;;11.21;94.39
36692;BME280;22678;52.052;4.242;2023-03-22T12:20:59;100514.97;;;11.20;94.71
36692;BME280;22678;52.052;4.242;2023-03-22T12:23:27;100516.78;;;11.18;94.42
36692;BME280;22678;52.052;4.242;2023-03-22T12:26:13;100523.78;;;11.19;94.54
36692;BME280;22678;52.052;4.242;2023-03-22T12:28:52;100494.84;;;11.17;94.09
36692;BME280;22678;52.052;4.242;2023-03-22T12:31:22;100520.19;;;11.23;94.15
36692;BME280;22678;52.052;4.242;2023-03-22T12:33:51;100508.84;;;11.19;94.05
36692;BME280;22678;52.052;4.242;2023-03-22T12:36:20;100508.78;;;11.24;94.08
36692;BME280;22678;52.052;4.242;2023-03-22T12:38:55;100514.88;;;11.26;94.07
36692;BME280;22678;52.052;4.242;2023-03-22T12:41:43;100519.25;;;11.27;94.05
36692;BME280;22678;52.052;4.242;2023-03-22T12:44:28;100527.91;;;11.35;93.84
36692;BME280;22678;52.052;4.242;2023-03-22T12:47:04;100521.72;;;11.36;93.78
36692;BME280;22678;52.052;4.242;2023-03-22T12:49:54;100514.72;;;11.35;93.98
36692;BME280;22678;52.052;4.242;2023-03-22T12:55:00;100509.53;;;11.32;93.61
36692;BME280;22678;52.052;4.242;2023-03-22T12:57:27;100523.28;;;11.47;93.25
36692;BME280;22678;52.052;4.242;2023-03-22T12:59:55;100525.03;;;11.48;93.21
36692;BME280;22678;52.052;4.242;2023-03-22T13:04:57;100511.06;;;11.46;93.14
36692;BME280;22678;52.052;4.242;2023-03-22T13:09:53;100520.50;;;11.57;93.02
36692;BME280;22678;52.052;4.242;2023-03-22T13:17:40;100508.97;;;11.65;92.98
36692;BME280;22678;52.052;4.242;2023-03-22T13:27:37;100522.88;;;11.71;93.45
36692;BME280;22678;52.052;4.242;2023-03-22T13:32:54;100513.22;;;11.72;93.99
36692;BME280;22678;52.052;4.242;2023-03-22T13:35:43;100503.53;;;11.74;93.72
36692;BME280;22678;52.052;4.242;2023-03-22T13:40:57;100499.91;;;11.80;94.34
36692;BME280;22678;52.052;4.242;2023-03-22T13:43:25;100495.47;;;11.82;94.70
36692;BME280;22678;52.052;4.242;2023-03-22T13:54:03;100477.09;;;11.79;94.28
36692;BME280;22678;52.052;4.242;2023-03-22T13:59:23;100480.56;;;11.81;94.54
36692;BME280;22678;52.052;4.242;2023-03-22T14:04:55;100481.31;;;11.87;94.38
36692;BME280;22678;52.052;4.242;2023-03-22T14:12:48;100458.63;;;11.80;94.62
36692;BME280;22678;52.052;4.242;2023-03-22T14:15:21;100471.63;;;11.88;94.78
36692;BME280;22678;52.052;4.242;2023-03-22T14:18:10;100448.00;;;11.83;94.87
36692;BME280;22678;52.052;4.242;2023-03-22T14:20:38;100461.09;;;11.88;94.87
36692;BME280;22678;52.052;4.242;2023-03-22T14:23:13;100451.44;;;11.88;95.02
36692;BME280;22678;52.052;4.242;2023-03-22T14:25:40;100459.28;;;11.91;95.08
36692;BME280;22678;52.052;4.242;2023-03-22T14:28:06;100446.97;;;11.92;95.29
36692;BME280;22678;52.052;4.242;2023-03-22T14:33:00;100446.97;;;11.92;96.15
36692;BME280;22678;52.052;4.242;2023-03-22T14:35:34;100451.41;;;11.90;96.16
36692;BME280;22678;52.052;4.242;2023-03-22T14:38:21;100467.13;;;11.96;96.46
36692;BME280;22678;52.052;4.242;2023-03-22T14:41:05;100461.03;;;11.91;96.58
36692;BME280;22678;52.052;4.242;2023-03-22T14:43:31;100443.69;;;11.81;96.90
36692;BME280;22678;52.052;4.242;2023-03-22T14:46:14;100454.09;;;11.87;97.21
36692;BME280;22678;52.052;4.242;2023-03-22T14:48:46;100464.78;;;11.81;97.62
36692;BME280;22678;52.052;4.242;2023-03-22T14:51:15;100454.19;;;11.82;98.01